LFCK/DCM METAR and TAF weather

Enter ICAO airport designator
Station Type Date Time Source
LFCK METAR 2019/10/15 04:30 UTC NOAA

LFCK 150430Z AUTO 28016KT 9999 -RA SCT009/// BKN014/// BKN019/// ///CB 12/11 Q1014


Station Type Date Time Source
LFCK Decoded METAR 2019/10/15 04:30 UTC NOAA

Station name not available
Oct 15, 2019 - 12:30 AM EDT / 2019.10.15 0430 UTC
Wind: from the W (280 degrees) at 18 MPH (16 KT):0
Visibility: greater than 7 mile(s):0
Sky conditions: mostly cloudy
Weather: light rain; Cumulonimbus clouds observed
Temperature: 53 F (12 C)
Dew Point: 51 F (11 C)
Relative Humidity: 93%
Pressure (altimeter): 29.94 in. Hg (1014 hPa)
ob: LFCK 150430Z AUTO 28016KT 9999 -RA SCT009/// BKN014/// BKN019/// ///CB 12/11 Q1014
cycle: 4

Station Type Date Time Source
LFCK TAF UTC NOAA

Error!

Example: see airport list